YPD weather

Parry Sound Area Municipal Airport
Parry Sound, Ontario, Canada

Public forecast

Using degrees Celsius for public forecast. Weather courtesy of forecast.io.

METAR (pilot weather report)

Closest report is Muskoka Airport, 28.0 nm (51.9 km) SE. Retrieved 2019/04/26 01:00 UTC (19 minutes ago):

CYQA 260100Z AUTO 16004KT 9SM BKN130 11/04 A2979 RMK SLP094

TAF (pilot weather forecast)

Closest forecast is Muskoka Airport, 28.0 nm (51.9 km) SE. Retrieved 2019/04/25 20:00 UTC (5 hours ago):

TAF CYQA 251938Z 2520/2602 21006KT P6SM FEW110 BECMG 2523/2601 VRB03KT RMK FCST BASED ON AUTO OBS. NXT FCST WILL BE ISSUED AT 261145Z